sensor_id;sensor_type;location;lat;lon;timestamp;pressure;altitude;pressure_sealevel;temperature;humidity
20696;BME280;10507;52.754;13.040;2023-04-01T00:00:37;99705.22;;;9.67;100.00
20696;BME280;10507;52.754;13.040;2023-04-01T00:03:05;99696.34;;;9.66;100.00
20696;BME280;10507;52.754;13.040;2023-04-01T00:05:33;99691.97;;;9.65;100.00
20696;BME280;10507;52.754;13.040;2023-04-01T00:08:01;99702.44;;;9.68;100.00
20696;BME280;10507;52.754;13.040;2023-04-01T00:10:31;99700.66;;;9.69;100.00
20696;BME280;10507;52.754;13.040;2023-04-01T00:13:00;99697.09;;;9.68;100.00
20696;BME280;10507;52.754;13.040;2023-04-01T00:15:28;99666.75;;;9.56;100.00
20696;BME280;10507;52.754;13.040;2023-04-01T00:17:56;99691.50;;;9.58;100.00
20696;BME280;10507;52.754;13.040;2023-04-01T00:20:25;99706.56;;;9.60;100.00
20696;BME280;10507;52.754;13.040;2023-04-01T00:22:53;99705.78;;;9.57;100.00
20696;BME280;10507;52.754;13.040;2023-04-01T00:25:21;99719.88;;;9.60;100.00
20696;BME280;10507;52.754;13.040;2023-04-01T00:27:51;99738.53;;;9.60;100.00
20696;BME280;10507;52.754;13.040;2023-04-01T00:30:19;99733.38;;;9.56;100.00
20696;BME280;10507;52.754;13.040;2023-04-01T00:32:46;99744.03;;;9.56;100.00
20696;BME280;10507;52.754;13.040;2023-04-01T00:35:15;99759.94;;;9.58;100.00
20696;BME280;10507;52.754;13.040;2023-04-01T00:37:43;99776.69;;;9.60;100.00
20696;BME280;10507;52.754;13.040;2023-04-01T00:40:24;99770.50;;;9.60;100.00
20696;BME280;10507;52.754;13.040;2023-04-01T00:42:53;99760.00;;;9.56;100.00
20696;BME280;10507;52.754;13.040;2023-04-01T00:45:32;99766.19;;;9.57;100.00
20696;BME280;10507;52.754;13.040;2023-04-01T00:48:04;99771.72;;;9.54;100.00
20696;BME280;10507;52.754;13.040;2023-04-01T00:50:34;99785.91;;;9.54;100.00
20696;BME280;10507;52.754;13.040;2023-04-01T00:53:03;99793.88;;;9.54;100.00
20696;BME280;10507;52.754;13.040;2023-04-01T00:55:35;99806.44;;;9.52;100.00
20696;BME280;10507;52.754;13.040;2023-04-01T00:58:14;99823.31;;;9.53;100.00
20696;BME280;10507;52.754;13.040;2023-04-01T01:00:42;99836.53;;;9.54;100.00
20696;BME280;10507;52.754;13.040;2023-04-01T01:03:11;99844.63;;;9.53;100.00
20696;BME280;10507;52.754;13.040;2023-04-01T01:06:02;99850.81;;;9.53;100.00
20696;BME280;10507;52.754;13.040;2023-04-01T01:08:43;99849.28;;;9.49;100.00
20696;BME280;10507;52.754;13.040;2023-04-01T01:11:22;99862.41;;;9.52;100.00
20696;BME280;10507;52.754;13.040;2023-04-01T01:13:58;99857.06;;;9.52;100.00
20696;BME280;10507;52.754;13.040;2023-04-01T01:16:30;99843.09;;;9.49;100.00
20696;BME280;10507;52.754;13.040;2023-04-01T01:19:07;99832.59;;;9.46;100.00
20696;BME280;10507;52.754;13.040;2023-04-01T01:21:56;99838.81;;;9.46;100.00
20696;BME280;10507;52.754;13.040;2023-04-01T01:24:44;99834.50;;;9.44;100.00
20696;BME280;10507;52.754;13.040;2023-04-01T01:27:17;99817.84;;;9.40;100.00
20696;BME280;10507;52.754;13.040;2023-04-01T01:30:10;99845.34;;;9.41;100.00
20696;BME280;10507;52.754;13.040;2023-04-01T01:32:54;99867.50;;;9.41;100.00
20696;BME280;10507;52.754;13.040;2023-04-01T01:35:27;99860.63;;;9.37;100.00
20696;BME280;10507;52.754;13.040;2023-04-01T01:38:01;99870.44;;;9.36;100.00
20696;BME280;10507;52.754;13.040;2023-04-01T01:40:31;99883.88;;;9.35;100.00
20696;BME280;10507;52.754;13.040;2023-04-01T01:43:05;99890.88;;;9.36;100.00
20696;BME280;10507;52.754;13.040;2023-04-01T01:45:38;99893.56;;;9.36;100.00
20696;BME280;10507;52.754;13.040;2023-04-01T01:48:09;99905.91;;;9.37;100.00
20696;BME280;10507;52.754;13.040;2023-04-01T01:50:40;99926.13;;;9.41;100.00
20696;BME280;10507;52.754;13.040;2023-04-01T01:53:11;99919.94;;;9.41;100.00
20696;BME280;10507;52.754;13.040;2023-04-01T01:55:41;99930.50;;;9.42;100.00
20696;BME280;10507;52.754;13.040;2023-04-01T01:58:13;99922.53;;;9.42;100.00
20696;BME280;10507;52.754;13.040;2023-04-01T02:00:47;99929.56;;;9.43;100.00
20696;BME280;10507;52.754;13.040;2023-04-01T02:03:20;99937.47;;;9.45;100.00
20696;BME280;10507;52.754;13.040;2023-04-01T02:05:51;99913.56;;;9.43;100.00
20696;BME280;10507;52.754;13.040;2023-04-01T02:08:23;99915.38;;;9.43;100.00
20696;BME280;10507;52.754;13.040;2023-04-01T02:10:56;99916.16;;;9.45;100.00
20696;BME280;10507;52.754;13.040;2023-04-01T02:13:28;99904.53;;;9.46;100.00
20696;BME280;10507;52.754;13.040;2023-04-01T02:16:00;99897.31;;;9.48;100.00
20696;BME280;10507;52.754;13.040;2023-04-01T02:18:33;99870.84;;;9.45;100.00
20696;BME280;10507;52.754;13.040;2023-04-01T02:21:05;99867.22;;;9.46;100.00
20696;BME280;10507;52.754;13.040;2023-04-01T02:23:36;99875.91;;;9.49;100.00
20696;BME280;10507;52.754;13.040;2023-04-01T02:26:06;99856.50;;;9.47;100.00
20696;BME280;10507;52.754;13.040;2023-04-01T02:28:38;99866.03;;;9.51;100.00
20696;BME280;10507;52.754;13.040;2023-04-01T02:31:08;99851.94;;;9.49;100.00
20696;BME280;10507;52.754;13.040;2023-04-01T02:33:38;99847.53;;;9.48;100.00
20696;BME280;10507;52.754;13.040;2023-04-01T02:36:10;99844.88;;;9.48;100.00
20696;BME280;10507;52.754;13.040;2023-04-01T02:38:40;99842.22;;;9.48;100.00
20696;BME280;10507;52.754;13.040;2023-04-01T02:41:08;99845.84;;;9.47;100.00
20696;BME280;10507;52.754;13.040;2023-04-01T02:43:36;99837.06;;;9.45;100.00
20696;BME280;10507;52.754;13.040;2023-04-01T02:46:05;99852.88;;;9.48;100.00
20696;BME280;10507;52.754;13.040;2023-04-01T02:48:34;99833.63;;;9.43;100.00
20696;BME280;10507;52.754;13.040;2023-04-01T02:51:02;99810.97;;;9.36;100.00
20696;BME280;10507;52.754;13.040;2023-04-01T02:53:32;99834.88;;;9.38;100.00
20696;BME280;10507;52.754;13.040;2023-04-01T02:56:00;99854.38;;;9.38;100.00
20696;BME280;10507;52.754;13.040;2023-04-01T02:58:28;99861.59;;;9.36;100.00
20696;BME280;10507;52.754;13.040;2023-04-01T03:00:56;99872.31;;;9.34;100.00
20696;BME280;10507;52.754;13.040;2023-04-01T03:03:24;99906.88;;;9.36;100.00
20696;BME280;10507;52.754;13.040;2023-04-01T03:05:52;99934.38;;;9.36;100.00
20696;BME280;10507;52.754;13.040;2023-04-01T03:08:22;99964.44;;;9.39;100.00
20696;BME280;10507;52.754;13.040;2023-04-01T03:10:52;99981.13;;;9.42;100.00
20696;BME280;10507;52.754;13.040;2023-04-01T03:13:20;99984.72;;;9.41;100.00
20696;BME280;10507;52.754;13.040;2023-04-01T03:15:48;99983.94;;;9.39;100.00
20696;BME280;10507;52.754;13.040;2023-04-01T03:18:16;99991.16;;;9.37;100.00
20696;BME280;10507;52.754;13.040;2023-04-01T03:20:44;99982.44;;;9.35;100.00
20696;BME280;10507;52.754;13.040;2023-04-01T03:23:12;99997.47;;;9.36;100.00
20696;BME280;10507;52.754;13.040;2023-04-01T03:25:43;100009.81;;;9.37;100.00
20696;BME280;10507;52.754;13.040;2023-04-01T03:28:12;100033.72;;;9.39;100.00
20696;BME280;10507;52.754;13.040;2023-04-01T03:30:40;100043.53;;;9.38;100.00
20696;BME280;10507;52.754;13.040;2023-04-01T03:33:09;100040.16;;;9.34;100.00
20696;BME280;10507;52.754;13.040;2023-04-01T03:35:36;100044.44;;;9.37;100.00
20696;BME280;10507;52.754;13.040;2023-04-01T03:38:04;100056.84;;;9.38;100.00
20696;BME280;10507;52.754;13.040;2023-04-01T03:40:32;100057.69;;;9.39;100.00
20696;BME280;10507;52.754;13.040;2023-04-01T03:43:03;100065.63;;;9.40;100.00
20696;BME280;10507;52.754;13.040;2023-04-01T03:45:36;100058.66;;;9.38;100.00
20696;BME280;10507;52.754;13.040;2023-04-01T03:48:04;100045.41;;;9.36;100.00
20696;BME280;10507;52.754;13.040;2023-04-01T03:50:34;100051.59;;;9.36;100.00
20696;BME280;10507;52.754;13.040;2023-04-01T03:53:02;100072.75;;;9.40;100.00
20696;BME280;10507;52.754;13.040;2023-04-01T03:55:30;100078.09;;;9.40;100.00
20696;BME280;10507;52.754;13.040;2023-04-01T03:57:59;100076.28;;;9.40;100.00
20696;BME280;10507;52.754;13.040;2023-04-01T04:00:28;100088.63;;;9.41;100.00
20696;BME280;10507;52.754;13.040;2023-04-01T04:02:58;100078.94;;;9.40;100.00
20696;BME280;10507;52.754;13.040;2023-04-01T04:05:27;100083.41;;;9.40;100.00
20696;BME280;10507;52.754;13.040;2023-04-01T04:07:55;100093.97;;;9.41;100.00
20696;BME280;10507;52.754;13.040;2023-04-01T04:10:23;100087.78;;;9.41;100.00
20696;BME280;10507;52.754;13.040;2023-04-01T04:12:51;100083.31;;;9.41;100.00
20696;BME280;10507;52.754;13.040;2023-04-01T04:15:19;100089.59;;;9.40;100.00
20696;BME280;10507;52.754;13.040;2023-04-01T04:17:48;100082.53;;;9.39;100.00
20696;BME280;10507;52.754;13.040;2023-04-01T04:20:17;100069.38;;;9.36;100.00
20696;BME280;10507;52.754;13.040;2023-04-01T04:22:46;100084.41;;;9.37;100.00
20696;BME280;10507;52.754;13.040;2023-04-01T04:25:14;100084.59;;;9.34;100.00
20696;BME280;10507;52.754;13.040;2023-04-01T04:27:42;100105.72;;;9.37;100.00
20696;BME280;10507;52.754;13.040;2023-04-01T04:30:11;100107.63;;;9.35;100.00
20696;BME280;10507;52.754;13.040;2023-04-01T04:32:39;100121.72;;;9.37;100.00
20696;BME280;10507;52.754;13.040;2023-04-01T04:35:08;100108.63;;;9.32;100.00
20696;BME280;10507;52.754;13.040;2023-04-01T04:37:38;100125.50;;;9.33;100.00
20696;BME280;10507;52.754;13.040;2023-04-01T04:40:07;100151.00;;;9.37;100.00
20696;BME280;10507;52.754;13.040;2023-04-01T04:42:35;100154.63;;;9.36;100.00
20696;BME280;10507;52.754;13.040;2023-04-01T04:45:04;100151.97;;;9.36;100.00
20696;BME280;10507;52.754;13.040;2023-04-01T04:47:32;100133.66;;;9.30;100.00
20696;BME280;10507;52.754;13.040;2023-04-01T04:50:00;100121.34;;;9.27;100.00
20696;BME280;10507;52.754;13.040;2023-04-01T04:52:28;100159.34;;;9.31;100.00
20696;BME280;10507;52.754;13.040;2023-04-01T04:54:57;100169.06;;;9.32;100.00
20696;BME280;10507;52.754;13.040;2023-04-01T04:57:26;100178.69;;;9.34;100.00
20696;BME280;10507;52.754;13.040;2023-04-01T04:59:54;100199.94;;;9.36;100.00
20696;BME280;10507;52.754;13.040;2023-04-01T05:02:22;100206.97;;;9.37;100.00
20696;BME280;10507;52.754;13.040;2023-04-01T05:04:50;100198.91;;;9.39;100.00
20696;BME280;10507;52.754;13.040;2023-04-01T05:07:18;100201.56;;;9.39;100.00
20696;BME280;10507;52.754;13.040;2023-04-01T05:09:46;100204.16;;;9.40;100.00
20696;BME280;10507;52.754;13.040;2023-04-01T05:12:16;100197.88;;;9.41;100.00
20696;BME280;10507;52.754;13.040;2023-04-01T05:14:44;100191.69;;;9.41;100.00
20696;BME280;10507;52.754;13.040;2023-04-01T05:17:12;100182.78;;;9.42;100.00
20696;BME280;10507;52.754;13.040;2023-04-01T05:19:40;100195.06;;;9.44;100.00
20696;BME280;10507;52.754;13.040;2023-04-01T05:22:08;100196.78;;;9.45;100.00
20696;BME280;10507;52.754;13.040;2023-04-01T05:24:36;100198.41;;;9.48;100.00
20696;BME280;10507;52.754;13.040;2023-04-01T05:27:04;100204.47;;;9.51;100.00
20696;BME280;10507;52.754;13.040;2023-04-01T05:29:34;100200.94;;;9.51;100.00
20696;BME280;10507;52.754;13.040;2023-04-01T05:32:02;100195.50;;;9.52;100.00
20696;BME280;10507;52.754;13.040;2023-04-01T05:34:30;100204.28;;;9.54;100.00
20696;BME280;10507;52.754;13.040;2023-04-01T05:36:58;100207.66;;;9.58;100.00
20696;BME280;10507;52.754;13.040;2023-04-01T05:39:26;100213.66;;;9.62;100.00
20696;BME280;10507;52.754;13.040;2023-04-01T05:41:54;100203.78;;;9.64;100.00
20696;BME280;10507;52.754;13.040;2023-04-01T05:44:22;100210.69;;;9.68;100.00
20696;BME280;10507;52.754;13.040;2023-04-01T05:46:51;100187.56;;;9.68;100.00
20696;BME280;10507;52.754;13.040;2023-04-01T05:49:19;100187.41;;;9.71;100.00
20696;BME280;10507;52.754;13.040;2023-04-01T05:51:47;100162.56;;;9.71;100.00
20696;BME280;10507;52.754;13.040;2023-04-01T05:54:15;100158.88;;;9.73;100.00
20696;BME280;10507;52.754;13.040;2023-04-01T05:56:43;100141.06;;;9.74;100.00
20696;BME280;10507;52.754;13.040;2023-04-01T05:59:14;100126.78;;;9.75;100.00
20696;BME280;10507;52.754;13.040;2023-04-01T06:01:42;100119.56;;;9.77;100.00
20696;BME280;10507;52.754;13.040;2023-04-01T06:04:14;100101.66;;;9.79;100.00
20696;BME280;10507;52.754;13.040;2023-04-01T06:06:43;100082.22;;;9.77;100.00
20696;BME280;10507;52.754;13.040;2023-04-01T06:09:14;100104.84;;;9.86;100.00
20696;BME280;10507;52.754;13.040;2023-04-01T06:11:55;100085.34;;;9.85;100.00
20696;BME280;10507;52.754;13.040;2023-04-01T06:14:34;100019.47;;;9.71;100.00
20696;BME280;10507;52.754;13.040;2023-04-01T06:17:16;100017.06;;;9.67;100.00
20696;BME280;10507;52.754;13.040;2023-04-01T06:19:51;99946.50;;;9.42;100.00
20696;BME280;10507;52.754;13.040;2023-04-01T06:25:41;99891.50;;;9.25;100.00
20696;BME280;10507;52.754;13.040;2023-04-01T06:28:39;99864.88;;;9.09;100.00
20696;BME280;10507;52.754;13.040;2023-04-01T06:31:20;99844.44;;;8.94;100.00
20696;BME280;10507;52.754;13.040;2023-04-01T06:33:59;99836.19;;;8.83;100.00
20696;BME280;10507;52.754;13.040;2023-04-01T06:36:42;99852.44;;;8.78;100.00
20696;BME280;10507;52.754;13.040;2023-04-01T06:39:32;99842.63;;;8.79;100.00
20696;BME280;10507;52.754;13.040;2023-04-01T06:42:22;99826.25;;;8.70;100.00
20696;BME280;10507;52.754;13.040;2023-04-01T06:45:06;99867.34;;;8.81;100.00
20696;BME280;10507;52.754;13.040;2023-04-01T06:47:44;99786.75;;;8.63;100.00
20696;BME280;10507;52.754;13.040;2023-04-01T06:50:20;99847.28;;;8.75;100.00
20696;BME280;10507;52.754;13.040;2023-04-01T06:52:58;99805.63;;;8.74;100.00
20696;BME280;10507;52.754;13.040;2023-04-01T06:55:36;99739.38;;;8.53;100.00
20696;BME280;10507;52.754;13.040;2023-04-01T06:58:13;99712.50;;;8.42;100.00
20696;BME280;10507;52.754;13.040;2023-04-01T07:00:48;99703.72;;;8.24;100.00
20696;BME280;10507;52.754;13.040;2023-04-01T07:03:22;99764.56;;;8.30;100.00
20696;BME280;10507;52.754;13.040;2023-04-01T07:05:51;99785.06;;;8.28;100.00
20696;BME280;10507;52.754;13.040;2023-04-01T07:08:23;99785.06;;;8.28;100.00
20696;BME280;10507;52.754;13.040;2023-04-01T07:10:56;99783.50;;;8.24;100.00
20696;BME280;10507;52.754;13.040;2023-04-01T07:13:29;99805.56;;;8.26;100.00
20696;BME280;10507;52.754;13.040;2023-04-01T07:16:05;99813.34;;;8.29;100.00
20696;BME280;10507;52.754;13.040;2023-04-01T07:18:37;99807.19;;;8.29;100.00
20696;BME280;10507;52.754;13.040;2023-04-01T07:21:20;99783.50;;;8.24;100.00
20696;BME280;10507;52.754;13.040;2023-04-01T07:23:51;99781.94;;;8.20;100.00
20696;BME280;10507;52.754;13.040;2023-04-01T07:26:23;99788.28;;;8.18;100.00
20696;BME280;10507;52.754;13.040;2023-04-01T07:28:52;99754.84;;;8.13;100.00
20696;BME280;10507;52.754;13.040;2023-04-01T07:31:35;99743.53;;;8.10;100.00
20696;BME280;10507;52.754;13.040;2023-04-01T07:34:13;99744.44;;;8.09;100.00
20696;BME280;10507;52.754;13.040;2023-04-01T07:36:46;99773.38;;;8.15;100.00
20696;BME280;10507;52.754;13.040;2023-04-01T07:39:27;99728.09;;;8.01;100.00
20696;BME280;10507;52.754;13.040;2023-04-01T07:42:02;99761.34;;;8.08;100.00
20696;BME280;10507;52.754;13.040;2023-04-01T07:44:39;99764.94;;;8.07;100.00
20696;BME280;10507;52.754;13.040;2023-04-01T07:47:17;99782.31;;;8.14;100.00
20696;BME280;10507;52.754;13.040;2023-04-01T07:49:56;99706.53;;;7.89;100.00
20696;BME280;10507;52.754;13.040;2023-04-01T07:52:35;99748.56;;;7.99;100.00
20696;BME280;10507;52.754;13.040;2023-04-01T07:55:10;99754.56;;;8.02;100.00
20696;BME280;10507;52.754;13.040;2023-04-01T07:57:45;99721.81;;;8.02;100.00
20696;BME280;10507;52.754;13.040;2023-04-01T08:00:20;99738.47;;;8.05;100.00
20696;BME280;10507;52.754;13.040;2023-04-01T08:03:04;99768.22;;;8.12;100.00
20696;BME280;10507;52.754;13.040;2023-04-01T08:05:41;99746.44;;;8.05;100.00
20696;BME280;10507;52.754;13.040;2023-04-01T08:08:18;99751.75;;;8.05;100.00
20696;BME280;10507;52.754;13.040;2023-04-01T08:10:52;99787.88;;;8.09;100.00
20696;BME280;10507;52.754;13.040;2023-04-01T08:13:31;99777.84;;;8.15;100.00
20696;BME280;10507;52.754;13.040;2023-04-01T08:16:09;99792.34;;;8.25;100.00
20696;BME280;10507;52.754;13.040;2023-04-01T08:18:47;99779.22;;;8.38;100.00
20696;BME280;10507;52.754;13.040;2023-04-01T08:21:22;99766.78;;;8.38;100.00
20696;BME280;10507;52.754;13.040;2023-04-01T08:23:52;99759.06;;;8.33;100.00
20696;BME280;10507;52.754;13.040;2023-04-01T08:26:30;99733.25;;;8.36;100.00
20696;BME280;10507;52.754;13.040;2023-04-01T08:29:05;99708.72;;;8.30;100.00
20696;BME280;10507;52.754;13.040;2023-04-01T08:31:37;99727.34;;;8.30;100.00
20696;BME280;10507;52.754;13.040;2023-04-01T08:34:14;99698.41;;;8.24;100.00
20696;BME280;10507;52.754;13.040;2023-04-01T08:36:45;99681.78;;;8.21;100.00
20696;BME280;10507;52.754;13.040;2023-04-01T08:39:19;99702.53;;;8.14;100.00
20696;BME280;10507;52.754;13.040;2023-04-01T08:42:27;99697.22;;;8.14;100.00
20696;BME280;10507;52.754;13.040;2023-04-01T08:48:12;99728.78;;;8.20;100.00
20696;BME280;10507;52.754;13.040;2023-04-01T08:51:04;99771.06;;;8.25;100.00
20696;BME280;10507;52.754;13.040;2023-04-01T08:53:46;99704.44;;;8.12;100.00
20696;BME280;10507;52.754;13.040;2023-04-01T08:56:20;99728.34;;;8.12;100.00
20696;BME280;10507;52.754;13.040;2023-04-01T08:59:16;99716.69;;;8.15;100.00
20696;BME280;10507;52.754;13.040;2023-04-01T09:02:10;99709.75;;;8.12;100.00
20696;BME280;10507;52.754;13.040;2023-04-01T09:05:19;99768.00;;;8.32;100.00
20696;BME280;10507;52.754;13.040;2023-04-01T09:07:58;99737.63;;;8.37;100.00
20696;BME280;10507;52.754;13.040;2023-04-01T09:10:42;99759.34;;;8.45;100.00
20696;BME280;10507;52.754;13.040;2023-04-01T09:13:29;99730.88;;;8.47;100.00
20696;BME280;10507;52.754;13.040;2023-04-01T09:16:27;99772.59;;;8.62;100.00
20696;BME280;10507;52.754;13.040;2023-04-01T09:19:13;99755.69;;;8.63;100.00
20696;BME280;10507;52.754;13.040;2023-04-01T09:25:20;99704.75;;;8.69;100.00
20696;BME280;10507;52.754;13.040;2023-04-01T09:27:56;99736.16;;;8.79;100.00
20696;BME280;10507;52.754;13.040;2023-04-01T09:30:46;99702.59;;;8.76;100.00
20696;BME280;10507;52.754;13.040;2023-04-01T09:33:47;99736.09;;;8.64;100.00
20696;BME280;10507;52.754;13.040;2023-04-01T09:36:30;99711.56;;;8.59;100.00
20696;BME280;10507;52.754;13.040;2023-04-01T09:39:26;99756.44;;;8.65;100.00
20696;BME280;10507;52.754;13.040;2023-04-01T09:44:51;99723.13;;;8.74;100.00
20696;BME280;10507;52.754;13.040;2023-04-01T09:47:35;99739.59;;;8.81;100.00
20696;BME280;10507;52.754;13.040;2023-04-01T09:50:24;99710.81;;;8.87;100.00
20696;BME280;10507;52.754;13.040;2023-04-01T09:53:00;99771.72;;;8.93;100.00
20696;BME280;10507;52.754;13.040;2023-04-01T10:11:17;99605.31;;;8.56;100.00
20696;BME280;10507;52.754;13.040;2023-04-01T10:14:15;99657.59;;;8.57;100.00
20696;BME280;10507;52.754;13.040;2023-04-01T10:23:39;99776.53;;;8.71;100.00
20696;BME280;10507;52.754;13.040;2023-04-01T10:26:29;99767.84;;;8.67;100.00
20696;BME280;10507;52.754;13.040;2023-04-01T10:32:26;99822.22;;;8.95;100.00
20696;BME280;10507;52.754;13.040;2023-04-01T10:35:43;99747.47;;;8.98;100.00
20696;BME280;10507;52.754;13.040;2023-04-01T10:41:31;99626.28;;;8.77;100.00
20696;BME280;10507;52.754;13.040;2023-04-01T10:50:24;99641.84;;;8.68;100.00
20696;BME280;10507;52.754;13.040;2023-04-01T10:53:18;99581.06;;;8.46;100.00
20696;BME280;10507;52.754;13.040;2023-04-01T10:59:38;99624.28;;;8.66;100.00
20696;BME280;10507;52.754;13.040;2023-04-01T11:02:56;99690.31;;;8.89;100.00
20696;BME280;10507;52.754;13.040;2023-04-01T11:05:59;99726.06;;;9.15;100.00
20696;BME280;10507;52.754;13.040;2023-04-01T11:12:03;99659.75;;;9.11;100.00
20696;BME280;10507;52.754;13.040;2023-04-01T11:15:13;99582.22;;;8.87;100.00
20696;BME280;10507;52.754;13.040;2023-04-01T11:21:02;99666.94;;;8.94;100.00
20696;BME280;10507;52.754;13.040;2023-04-01T11:23:53;99593.97;;;8.83;100.00
20696;BME280;10507;52.754;13.040;2023-04-01T11:26:43;99719.09;;;8.83;100.00
20696;BME280;10507;52.754;13.040;2023-04-01T11:32:34;99646.09;;;8.57;100.00
20696;BME280;10507;52.754;13.040;2023-04-01T11:35:25;99652.81;;;8.48;100.00
20696;BME280;10507;52.754;13.040;2023-04-01T11:38:07;99707.56;;;8.52;100.00
20696;BME280;10507;52.754;13.040;2023-04-01T11:40:45;99694.13;;;8.38;100.00
20696;BME280;10507;52.754;13.040;2023-04-01T11:43:22;99714.47;;;8.39;100.00
20696;BME280;10507;52.754;13.040;2023-04-01T11:51:38;99725.88;;;8.41;100.00
20696;BME280;10507;52.754;13.040;2023-04-01T11:57:03;99703.59;;;8.27;100.00
20696;BME280;10507;52.754;13.040;2023-04-01T11:59:47;99755.47;;;8.35;100.00
20696;BME280;10507;52.754;13.040;2023-04-01T12:02:25;99744.22;;;8.29;100.00
20696;BME280;10507;52.754;13.040;2023-04-01T12:05:19;99732.56;;;8.32;100.00
20696;BME280;10507;52.754;13.040;2023-04-01T12:08:09;99740.28;;;8.21;100.00
20696;BME280;10507;52.754;13.040;2023-04-01T12:10:40;99791.94;;;8.32;100.00
20696;BME280;10507;52.754;13.040;2023-04-01T12:13:22;99825.47;;;8.52;100.00
20696;BME280;10507;52.754;13.040;2023-04-01T12:16:01;99725.19;;;8.37;100.00
20696;BME280;10507;52.754;13.040;2023-04-01T12:18:35;99730.50;;;8.37;100.00
20696;BME280;10507;52.754;13.040;2023-04-01T12:21:17;99644.31;;;8.09;100.00
20696;BME280;10507;52.754;13.040;2023-04-01T12:24:15;99718.13;;;8.20;100.00
20696;BME280;10507;52.754;13.040;2023-04-01T12:26:59;99699.63;;;8.19;100.00
20696;BME280;10507;52.754;13.040;2023-04-01T12:29:46;99725.59;;;8.13;100.00
20696;BME280;10507;52.754;13.040;2023-04-01T12:32:22;99727.13;;;8.02;100.00
20696;BME280;10507;52.754;13.040;2023-04-01T12:35:00;99712.47;;;7.95;100.00
20696;BME280;10507;52.754;13.040;2023-04-01T12:37:36;99683.19;;;7.79;100.00
20696;BME280;10507;52.754;13.040;2023-04-01T12:40:31;99721.25;;;7.79;100.00
20696;BME280;10507;52.754;13.040;2023-04-01T12:43:21;99747.03;;;7.77;100.00
20696;BME280;10507;52.754;13.040;2023-04-01T12:46:01;99725.75;;;7.61;100.00
20696;BME280;10507;52.754;13.040;2023-04-01T12:49:04;99711.31;;;7.49;100.00
20696;BME280;10507;52.754;13.040;2023-04-01T12:51:50;99766.78;;;7.56;100.00
20696;BME280;10507;52.754;13.040;2023-04-01T12:57:50;99777.16;;;7.60;100.00
20696;BME280;10507;52.754;13.040;2023-04-01T13:00:39;99724.84;;;7.45;100.00
20696;BME280;10507;52.754;13.040;2023-04-01T13:03:24;99766.06;;;7.52;100.00
20696;BME280;10507;52.754;13.040;2023-04-01T13:06:22;99739.53;;;7.35;100.00
20696;BME280;10507;52.754;13.040;2023-04-01T13:08:59;99774.13;;;7.33;100.00
20696;BME280;10507;52.754;13.040;2023-04-01T13:11:37;99802.09;;;7.40;100.00
20696;BME280;10507;52.754;13.040;2023-04-01T13:14:27;99801.31;;;7.38;100.00
20696;BME280;10507;52.754;13.040;2023-04-01T13:17:08;99809.09;;;7.41;100.00
20696;BME280;10507;52.754;13.040;2023-04-01T13:19:40;99810.38;;;7.52;100.00
20696;BME280;10507;52.754;13.040;2023-04-01T13:22:39;99752.31;;;7.44;100.00
20696;BME280;10507;52.754;13.040;2023-04-01T13:25:17;99829.28;;;7.63;100.00
20696;BME280;10507;52.754;13.040;2023-04-01T13:27:56;99777.06;;;7.62;100.00
20696;BME280;10507;52.754;13.040;2023-04-01T13:30:30;99787.47;;;7.66;100.00
20696;BME280;10507;52.754;13.040;2023-04-01T13:33:04;99782.00;;;7.69;100.00
20696;BME280;10507;52.754;13.040;2023-04-01T13:35:45;99717.84;;;7.60;100.00
20696;BME280;10507;52.754;13.040;2023-04-01T13:38:31;99750.81;;;7.73;100.00
20696;BME280;10507;52.754;13.040;2023-04-01T13:41:11;99701.44;;;7.69;100.00
20696;BME280;10507;52.754;13.040;2023-04-01T13:43:49;99736.41;;;7.77;100.00
20696;BME280;10507;52.754;13.040;2023-04-01T13:46:34;99724.50;;;7.84;100.00
20696;BME280;10507;52.754;13.040;2023-04-01T13:49:25;99720.34;;;7.80;100.00
20696;BME280;10507;52.754;13.040;2023-04-01T13:52:06;99649.50;;;7.63;100.00
20696;BME280;10507;52.754;13.040;2023-04-01T13:54:47;99697.22;;;7.65;100.00
20696;BME280;10507;52.754;13.040;2023-04-01T13:57:36;99660.06;;;7.47;100.00
20696;BME280;10507;52.754;13.040;2023-04-01T14:00:30;99702.50;;;7.49;100.00
20696;BME280;10507;52.754;13.040;2023-04-01T14:03:24;99661.66;;;7.34;100.00
20696;BME280;10507;52.754;13.040;2023-04-01T14:06:16;99657.31;;;7.33;100.00
20696;BME280;10507;52.754;13.040;2023-04-01T14:09:11;99643.16;;;7.33;100.00
20696;BME280;10507;52.754;13.040;2023-04-01T14:11:50;99622.66;;;7.19;100.00
20696;BME280;10507;52.754;13.040;2023-04-01T14:14:27;99544.91;;;6.99;100.00
20696;BME280;10507;52.754;13.040;2023-04-01T14:17:10;99616.56;;;6.99;100.00
20696;BME280;10507;52.754;13.040;2023-04-01T14:19:59;99644.00;;;7.00;100.00
20696;BME280;10507;52.754;13.040;2023-04-01T14:22:37;99577.06;;;6.77;100.00
20696;BME280;10507;52.754;13.040;2023-04-01T14:25:38;99701.34;;;7.02;100.00
20696;BME280;10507;52.754;13.040;2023-04-01T14:28:18;99618.72;;;6.75;100.00
20696;BME280;10507;52.754;13.040;2023-04-01T14:33:47;99686.66;;;6.78;100.00
20696;BME280;10507;52.754;13.040;2023-04-01T14:36:48;99677.31;;;6.71;100.00
20696;BME280;10507;52.754;13.040;2023-04-01T14:39:39;99725.50;;;6.79;100.00
20696;BME280;10507;52.754;13.040;2023-04-01T14:42:23;99714.13;;;6.77;100.00
20696;BME280;10507;52.754;13.040;2023-04-01T14:45:17;99767.22;;;6.94;100.00
20696;BME280;10507;52.754;13.040;2023-04-01T14:47:51;99706.66;;;6.85;100.00
20696;BME280;10507;52.754;13.040;2023-04-01T14:50:23;99681.38;;;6.78;100.00
20696;BME280;10507;52.754;13.040;2023-04-01T14:53:12;99720.38;;;6.76;100.00